Time;durP1;ratioP1;P1;durP2;ratioP2;P2;SDS_P1;SDS_P2;PMS_P1;PMS_P2;Temp;Humidity;BMP_temperature;BMP_pressure;BME280_temperature;BME280_humidity;BME280_pressure;Samples;Min_cycle;Max_cycle;Signal;HPM_P1;HPM_P2
2022/03/27 00:00:50;;;;;;;16.95;8.15;;;;;;;9.99;35.99;98220.73;1774780;81;21464;-82
2022/03/27 00:03:16;;;;;;;17.07;8.63;;;;;;;9.92;36.25;98222.23;1775563;81;21500;-83
2022/03/27 00:05:43;;;;;;;15.95;8.53;;;;;;;9.83;36.45;98221.53;1779073;81;21027;-85
2022/03/27 00:08:09;;;;;;;19.07;9.10;;;;;;;9.72;36.95;98223.09;1810133;79;20991;-83
2022/03/27 00:11:23;;;;;;;16.27;7.87;;;;;;;9.64;37.24;98220.62;1792832;79;21489;-83
2022/03/27 00:13:04;;;;;;;16.77;8.38;;;;;;;9.55;37.34;98219.49;1789440;79;21307;-82
2022/03/27 00:15:31;;;;;;;13.25;7.17;;;;;;;9.43;37.74;98219.77;1795406;79;21013;-84
2022/03/27 00:18:00;;;;;;;14.87;8.45;;;;;;;9.30;37.92;98220.48;1808711;78;21046;-83
2022/03/27 00:20:26;;;;;;;19.45;8.25;;;;;;;9.18;38.25;98215.84;1810002;79;21019;-82
2022/03/27 00:22:54;;;;;;;16.42;8.55;;;;;;;9.05;38.47;98212.59;1767827;81;21019;-86
2022/03/27 00:25:20;;;;;;;16.17;7.30;;;;;;;8.93;38.88;98215.02;1745859;82;21043;-82
2022/03/27 00:27:47;;;;;;;12.55;7.40;;;;;;;8.82;39.74;98219.21;1745639;82;20972;-81
2022/03/27 00:30:13;;;;;;;18.45;7.87;;;;;;;8.76;39.46;98221.09;1741133;82;20995;-82
2022/03/27 00:32:40;;;;;;;15.95;8.03;;;;;;;8.66;39.84;98215.97;1775307;79;21432;-82
2022/03/27 00:35:07;;;;;;;14.43;7.97;;;;;;;8.60;39.83;98212.13;1787465;79;20936;-83
2022/03/27 00:37:34;;;;;;;14.90;7.70;;;;;;;8.54;39.89;98208.25;1785548;79;21107;-83
2022/03/27 00:40:01;;;;;;;16.27;7.17;;;;;;;8.49;40.70;98216.67;1800659;78;21297;-83
2022/03/27 00:42:27;;;;;;;18.12;7.85;;;;;;;8.44;41.31;98218.09;1802666;78;21023;-83
2022/03/27 00:44:54;;;;;;;13.53;7.20;;;;;;;8.39;41.23;98212.88;1784808;79;21097;-83
2022/03/27 00:47:20;;;;;;;15.23;7.95;;;;;;;8.38;41.11;98218.21;1746834;81;21388;-81
2022/03/27 00:49:47;;;;;;;14.83;7.08;;;;;;;8.35;41.56;98216.46;1775235;79;20979;-83
2022/03/27 00:52:13;;;;;;;18.27;7.70;;;;;;;8.34;41.59;98222.64;1799423;79;20995;-83
2022/03/27 00:54:40;;;;;;;19.10;7.65;;;;;;;8.34;41.08;98220.00;1758825;81;21092;-83
2022/03/27 00:57:08;;;;;;;16.15;7.28;;;;;;;8.34;41.05;98209.91;1799450;79;21002;-85
2022/03/27 00:59:34;;;;;;;17.40;7.60;;;;;;;8.37;41.31;98212.48;1798664;79;20995;-86
2022/03/27 01:02:02;;;;;;;14.45;7.28;;;;;;;8.46;41.12;98211.00;1795970;79;20998;-84
2022/03/27 01:04:29;;;;;;;21.10;8.25;;;;;;;8.63;40.98;98205.45;1800710;79;21061;-84
2022/03/27 01:06:58;;;;;;;18.82;9.30;;;;;;;8.73;40.89;98215.85;1798050;79;20996;-85
2022/03/27 01:09:35;;;;;;;18.40;7.62;;;;;;;8.99;39.91;98211.39;1779294;79;21416;-85
2022/03/27 01:12:22;;;;;;;16.23;7.70;;;;;;;9.17;39.76;98214.11;1807785;79;20972;-85
2022/03/27 01:14:50;;;;;;;23.95;8.38;;;;;;;9.31;39.52;98212.53;1800337;79;21439;-84
2022/03/27 01:17:29;;;;;;;14.70;8.75;;;;;;;9.48;39.18;98212.14;1804781;79;21390;-86
2022/03/27 01:19:57;;;;;;;17.52;8.93;;;;;;;9.70;38.77;98201.09;1791315;79;21027;-83
2022/03/27 01:22:24;;;;;;;17.55;8.98;;;;;;;9.86;38.60;98215.30;1784099;80;21029;-83
2022/03/27 01:24:52;;;;;;;18.05;8.55;;;;;;;9.92;38.71;98215.14;1788021;79;20981;-84
2022/03/27 01:27:19;;;;;;;17.42;8.53;;;;;;;10.02;38.78;98226.41;1808630;78;21017;-83
2022/03/27 01:29:48;;;;;;;13.53;7.92;;;;;;;10.13;38.84;98224.83;1799258;78;20963;-83
2022/03/27 01:32:16;;;;;;;19.73;9.15;;;;;;;10.19;38.85;98235.71;1766597;80;21058;-83
2022/03/27 01:34:44;;;;;;;14.83;7.90;;;;;;;10.26;39.53;98239.97;1792681;79;21444;-83
2022/03/27 01:37:16;;;;;;;16.75;7.58;;;;;;;10.32;39.25;98231.86;1787638;79;21377;-84
2022/03/27 01:39:44;;;;;;;15.80;8.20;;;;;;;10.33;39.56;98219.03;1767999;81;21094;-79
2022/03/27 01:42:10;;;;;;;14.33;7.80;;;;;;;10.35;39.77;98218.55;1802175;79;20969;-78
2022/03/27 01:44:37;;;;;;;15.28;8.18;;;;;;;10.40;39.82;98211.80;1772324;81;20996;-78
2022/03/27 01:47:05;;;;;;;22.25;9.23;;;;;;;10.42;40.21;98219.24;1805831;79;21476;-79
2022/03/27 01:49:32;;;;;;;17.55;8.98;;;;;;;10.45;40.58;98211.70;1744488;81;21416;-79
2022/03/27 01:51:58;;;;;;;14.83;7.85;;;;;;;10.49;41.25;98216.90;1807116;79;21063;-79
2022/03/27 01:54:25;;;;;;;15.08;8.10;;;;;;;10.53;40.88;98217.68;1778324;79;20999;-80
2022/03/27 01:56:51;;;;;;;14.07;7.92;;;;;;;10.54;41.39;98222.95;1776025;81;21111;-79
2022/03/27 01:59:21;;;;;;;15.30;8.83;;;;;;;10.54;41.37;98229.58;1807618;79;21021;-79
2022/03/27 02:01:49;;;;;;;16.45;8.10;;;;;;;10.56;42.05;98242.80;1793568;79;20993;-80
2022/03/27 02:04:15;;;;;;;18.82;8.00;;;;;;;10.57;42.52;98227.30;1776002;80;21036;-80
2022/03/27 02:06:43;;;;;;;15.10;8.60;;;;;;;10.59;41.98;98233.42;1775889;80;21411;-80
2022/03/27 02:09:12;;;;;;;13.43;7.58;;;;;;;10.57;43.46;98231.28;1777080;79;21005;-80
2022/03/27 02:11:42;;;;;;;18.32;8.25;;;;;;;10.59;44.08;98229.44;1776027;81;21437;-79
2022/03/27 02:14:09;;;;;;;16.62;8.13;;;;;;;10.63;43.75;98230.26;1807172;79;21080;-80
2022/03/27 02:16:38;;;;;;;14.78;7.62;;;;;;;10.62;43.90;98230.70;1807773;79;20976;-80
2022/03/27 02:19:08;;;;;;;13.13;7.33;;;;;;;10.62;44.46;98225.84;1775994;81;21015;-79
2022/03/27 02:21:35;;;;;;;15.03;7.78;;;;;;;10.58;44.20;98239.63;1775958;81;21026;-79
2022/03/27 02:24:04;;;;;;;15.28;7.95;;;;;;;10.57;45.36;98240.55;1776016;81;21011;-79
2022/03/27 02:26:32;;;;;;;13.65;7.22;;;;;;;10.55;46.48;98241.06;1776050;81;21353;-79
2022/03/27 02:28:59;;;;;;;15.78;7.30;;;;;;;10.54;46.25;98248.56;1775889;81;21525;-78
2022/03/27 02:31:25;;;;;;;17.70;8.28;;;;;;;10.54;46.36;98268.00;1776495;79;21375;-78
2022/03/27 02:33:52;;;;;;;12.18;6.95;;;;;;;10.53;46.43;98271.56;1769109;81;20986;-78
2022/03/27 02:36:19;;;;;;;14.75;8.08;;;;;;;10.51;46.70;98278.67;1767602;81;21407;-79
2022/03/27 02:38:45;;;;;;;14.28;7.67;;;;;;;10.47;46.25;98287.63;1767834;81;21013;-79
2022/03/27 02:41:12;;;;;;;13.75;7.45;;;;;;;10.42;47.03;98300.05;1767711;81;21045;-79
2022/03/27 02:43:38;;;;;;;17.60;8.40;;;;;;;10.38;47.52;98309.01;1780770;80;21423;-79
2022/03/27 02:46:06;;;;;;;12.07;7.40;;;;;;;10.37;47.12;98312.54;1799179;79;20984;-79
2022/03/27 02:48:33;;;;;;;13.58;7.75;;;;;;;10.32;47.39;98313.11;1798994;79;21026;-79
2022/03/27 02:51:00;;;;;;;14.98;7.33;;;;;;;10.30;48.94;98310.52;1799167;79;20999;-79
2022/03/27 02:53:26;;;;;;;11.75;7.10;;;;;;;10.26;49.69;98314.14;1799285;80;21027;-79
2022/03/27 02:55:53;;;;;;;13.45;6.55;;;;;;;10.26;50.48;98314.14;1784385;80;21049;-79
2022/03/27 02:58:20;;;;;;;10.63;6.70;;;;;;;10.24;51.35;98310.64;1767899;81;21383;-79
2022/03/27 03:00:48;;;;;;;11.10;7.00;;;;;;;10.25;49.67;98315.91;1767792;81;21029;-79
2022/03/27 03:03:14;;;;;;;11.95;6.53;;;;;;;10.23;50.13;98311.11;1769357;80;21029;-79
2022/03/27 03:05:43;;;;;;;11.00;6.20;;;;;;;10.17;51.11;98317.41;1799149;79;21397;-79
2022/03/27 03:08:11;;;;;;;11.97;6.28;;;;;;;10.14;50.57;98317.47;1798816;79;20955;-79
2022/03/27 03:10:39;;;;;;;12.18;7.17;;;;;;;10.09;52.57;98310.08;1798832;79;20963;-79
2022/03/27 03:13:08;;;;;;;9.83;6.65;;;;;;;10.02;53.60;98308.48;1798840;79;21019;-79
2022/03/27 03:15:40;;;;;;;8.98;6.55;;;;;;;10.01;53.74;98310.73;1765185;81;20996;-79
2022/03/27 03:18:12;;;;;;;9.58;5.62;;;;;;;9.98;52.66;98319.61;1797576;79;21423;-79
2022/03/27 03:20:37;;;;;;;11.50;6.70;;;;;;;9.92;52.58;98317.08;1763094;81;21035;-79
2022/03/27 03:23:03;;;;;;;9.38;5.92;;;;;;;9.87;54.21;98325.13;1798941;79;21003;-78
2022/03/27 03:25:31;;;;;;;9.68;6.15;;;;;;;9.81;53.05;98323.06;1761640;81;21054;-78
2022/03/27 03:27:57;;;;;;;8.75;5.72;;;;;;;9.74;53.52;98334.22;1748848;81;21062;-78
2022/03/27 03:30:24;;;;;;;11.33;5.42;;;;;;;9.68;54.33;98335.21;1748663;82;21038;-78
2022/03/27 03:32:51;;;;;;;11.18;6.20;;;;;;;9.63;55.11;98339.73;1752822;81;20994;-78
2022/03/27 03:35:18;;;;;;;8.80;5.30;;;;;;;9.57;56.96;98340.74;1791048;80;22101;-78
2022/03/27 03:37:44;;;;;;;8.95;5.53;;;;;;;9.53;54.79;98336.84;1793272;80;21488;-78
2022/03/27 03:40:14;;;;;;;11.28;6.00;;;;;;;9.48;55.61;98344.89;1782668;80;21000;-78
2022/03/27 03:42:41;;;;;;;11.03;5.87;;;;;;;9.41;56.76;98342.81;1796144;80;21005;-78
2022/03/27 03:45:09;;;;;;;14.00;6.62;;;;;;;9.34;56.14;98349.98;1796016;80;21025;-78
2022/03/27 03:47:35;;;;;;;14.05;6.72;;;;;;;9.26;56.64;98353.22;1796155;80;20981;-78
2022/03/27 03:50:05;;;;;;;11.65;5.80;;;;;;;9.19;56.08;98351.16;1798570;79;21000;-78
2022/03/27 03:52:32;;;;;;;9.88;5.87;;;;;;;9.12;56.25;98342.90;1794378;80;20984;-78
2022/03/27 03:54:58;;;;;;;10.35;5.90;;;;;;;9.05;57.20;98356.67;1794463;80;21008;-77
2022/03/27 03:57:24;;;;;;;11.63;6.17;;;;;;;8.98;56.96;98349.30;1794461;80;20989;-78
2022/03/27 03:59:51;;;;;;;7.78;5.90;;;;;;;8.91;57.45;98357.36;1794338;80;21071;-78
2022/03/27 04:02:19;;;;;;;8.98;5.47;;;;;;;8.84;57.30;98364.08;1774322;80;21002;-78
2022/03/27 04:04:46;;;;;;;9.08;6.30;;;;;;;8.74;58.34;98364.25;1796168;80;21037;-78
2022/03/27 04:07:13;;;;;;;9.78;6.40;;;;;;;8.66;58.12;98373.62;1795949;80;21013;-78
2022/03/27 04:09:39;;;;;;;13.08;6.10;;;;;;;8.55;56.74;98378.63;1787851;80;21389;-79
2022/03/27 04:12:07;;;;;;;10.98;6.47;;;;;;;8.49;57.39;98380.02;1790831;80;20951;-79
2022/03/27 04:14:36;;;;;;;10.75;6.42;;;;;;;8.43;57.55;98384.93;1790821;80;21455;-78
2022/03/27 04:17:04;;;;;;;8.75;6.03;;;;;;;8.38;57.42;98390.73;1790956;80;20993;-79
2022/03/27 04:19:30;;;;;;;9.83;6.22;;;;;;;8.31;59.47;98397.86;1786681;80;21015;-79
2022/03/27 04:21:57;;;;;;;9.78;6.30;;;;;;;8.27;58.95;98400.58;1801932;80;21397;-79
2022/03/27 04:24:24;;;;;;;9.35;6.00;;;;;;;8.22;59.83;98409.01;1802102;80;21012;-79
2022/03/27 04:26:50;;;;;;;9.50;5.60;;;;;;;8.16;61.71;98406.88;1802084;80;21104;-79
2022/03/27 04:29:17;;;;;;;11.63;6.05;;;;;;;8.12;61.44;98414.84;1801912;80;21040;-79
2022/03/27 04:31:43;;;;;;;7.47;5.10;;;;;;;8.06;63.20;98422.41;1793684;80;21490;-79
2022/03/27 04:34:10;;;;;;;8.43;5.08;;;;;;;8.02;61.62;98418.06;1770698;80;21060;-79
2022/03/27 04:36:37;;;;;;;7.87;4.97;;;;;;;7.99;60.73;98420.73;1755019;81;21033;-79
2022/03/27 04:39:05;;;;;;;8.85;5.60;;;;;;;7.97;62.40;98428.66;1779240;81;21411;-79
2022/03/27 04:41:32;;;;;;;9.03;5.70;;;;;;;7.97;62.17;98435.25;1776885;81;21467;-79
2022/03/27 04:43:59;;;;;;;14.55;5.92;;;;;;;7.96;65.33;98439.23;1771857;79;21009;-79
2022/03/27 04:46:26;;;;;;;9.05;6.22;;;;;;;7.98;63.25;98440.98;1749432;82;21037;-78
2022/03/27 04:48:53;;;;;;;8.88;6.33;;;;;;;8.01;64.90;98454.59;1780191;81;21024;-79
2022/03/27 04:51:21;;;;;;;12.37;5.80;;;;;;;8.02;65.17;98450.59;1777020;81;21488;-78
2022/03/27 04:53:49;;;;;;;10.48;6.62;;;;;;;8.05;64.42;98457.59;1780345;81;21429;-80
2022/03/27 04:56:17;;;;;;;12.65;5.70;;;;;;;8.07;64.26;98451.88;1777536;81;20993;-80
2022/03/27 04:58:44;;;;;;;10.05;6.33;;;;;;;8.09;64.83;98450.08;1780280;81;21492;-80
2022/03/27 05:01:10;;;;;;;13.15;6.22;;;;;;;8.06;64.16;98467.29;1749447;82;21427;-80
2022/03/27 05:03:37;;;;;;;11.10;6.90;;;;;;;8.00;64.42;98490.66;1780327;81;21014;-80
2022/03/27 05:06:04;;;;;;;10.95;7.20;;;;;;;8.03;63.39;98485.36;1757109;80;21073;-80
2022/03/27 05:08:32;;;;;;;13.40;6.92;;;;;;;7.98;63.26;98496.41;1746334;82;21451;-79
2022/03/27 05:10:59;;;;;;;11.48;7.70;;;;;;;7.93;63.24;98509.64;1746300;82;21379;-79
2022/03/27 05:13:26;;;;;;;11.25;6.45;;;;;;;7.85;63.29;98511.95;1746203;82;21010;-79
2022/03/27 05:15:53;;;;;;;8.68;6.40;;;;;;;7.73;64.16;98492.69;1767339;81;21018;-79
2022/03/27 05:18:20;;;;;;;10.08;6.47;;;;;;;7.57;64.40;98495.94;1775035;81;20987;-79
2022/03/27 05:20:47;;;;;;;12.43;5.97;;;;;;;7.52;64.35;98520.17;1778645;81;20996;-79
2022/03/27 05:23:13;;;;;;;15.75;7.10;;;;;;;7.37;64.34;98523.36;1775206;81;21026;-79
2022/03/27 05:25:45;;;;;;;12.03;6.17;;;;;;;7.38;63.54;98508.39;1778567;81;20995;-79
2022/03/27 05:28:14;;;;;;;10.40;6.75;;;;;;;7.29;63.61;98492.22;1775142;81;21016;-79
2022/03/27 05:30:41;;;;;;;12.75;6.97;;;;;;;7.24;63.47;98501.92;1778348;81;20980;-79
2022/03/27 05:33:08;;;;;;;10.05;6.00;;;;;;;7.19;62.49;98502.41;1772759;81;22214;-79
2022/03/27 05:35:35;;;;;;;11.08;6.45;;;;;;;7.16;61.71;98494.52;1775495;81;20980;-80
2022/03/27 05:38:01;;;;;;;10.93;7.25;;;;;;;7.09;60.95;98518.29;1775521;81;21464;-79
2022/03/27 05:40:28;;;;;;;13.60;7.28;;;;;;;7.08;60.30;98508.64;1750087;81;21070;-80
2022/03/27 05:42:55;;;;;;;10.30;6.60;;;;;;;7.05;59.34;98523.61;1746619;82;21026;-79
2022/03/27 05:45:23;;;;;;;13.00;7.45;;;;;;;6.98;58.75;98523.63;1746403;82;21424;-79
2022/03/27 05:47:50;;;;;;;12.60;7.33;;;;;;;6.96;58.70;98526.72;1746598;82;21034;-79
2022/03/27 05:50:19;;;;;;;10.00;6.03;;;;;;;6.95;58.04;98546.06;1746467;82;21018;-80
2022/03/27 05:52:46;;;;;;;10.53;6.15;;;;;;;6.91;57.43;98543.01;1775162;81;21008;-79
2022/03/27 05:55:14;;;;;;;11.85;6.45;;;;;;;6.91;57.19;98540.38;1775555;81;21078;-79
2022/03/27 05:57:44;;;;;;;10.82;5.95;;;;;;;6.90;56.67;98532.05;1775528;81;21082;-79
2022/03/27 06:00:13;;;;;;;10.85;6.55;;;;;;;6.92;56.30;98549.13;1775577;81;20976;-79
2022/03/27 06:02:41;;;;;;;8.80;6.05;;;;;;;6.90;56.20;98546.53;1770982;81;20998;-78
2022/03/27 06:05:09;;;;;;;11.57;6.30;;;;;;;6.93;55.82;98545.17;1746411;82;21356;-78
2022/03/27 06:07:48;;;;;;;10.05;6.28;;;;;;;6.93;55.80;98549.12;1746531;82;21026;-79
2022/03/27 06:10:19;;;;;;;14.13;6.25;;;;;;;6.96;55.62;98553.08;1745103;82;21037;-79
2022/03/27 06:12:45;;;;;;;11.55;6.50;;;;;;;6.98;55.27;98578.97;1760245;81;21020;-79
2022/03/27 06:15:13;;;;;;;10.40;5.75;;;;;;;6.98;55.17;98556.56;1775813;81;20952;-79
2022/03/27 06:17:42;;;;;;;14.43;6.65;;;;;;;7.02;55.10;98558.73;1775767;81;21004;-79
2022/03/27 06:20:12;;;;;;;12.95;5.95;;;;;;;7.04;54.73;98563.57;1773803;81;21055;-79
2022/03/27 06:22:40;;;;;;;11.95;6.00;;;;;;;7.05;54.32;98560.50;1746782;82;21010;-79
2022/03/27 06:25:09;;;;;;;10.48;6.83;;;;;;;7.08;53.37;98566.63;1746648;82;21022;-79
2022/03/27 06:27:37;;;;;;;12.07;6.12;;;;;;;7.08;53.37;98567.94;1746603;82;21483;-79
2022/03/27 06:30:08;;;;;;;9.98;6.12;;;;;;;7.12;53.12;98557.81;1746897;81;21033;-79
2022/03/27 06:32:36;;;;;;;17.60;7.25;;;;;;;7.18;52.41;98571.84;1774853;81;21043;-79
2022/03/27 06:35:08;;;;;;;10.63;6.20;;;;;;;7.20;51.88;98578.85;1787517;80;21043;-79
2022/03/27 06:37:35;;;;;;;10.88;5.80;;;;;;;7.27;51.19;98588.92;1789818;80;21457;-79
2022/03/27 06:40:02;;;;;;;14.05;6.10;;;;;;;7.28;51.00;98589.77;1789670;80;21004;-79
2022/03/27 06:42:29;;;;;;;10.60;5.85;;;;;;;7.32;50.06;98586.23;1788977;80;20996;-79
2022/03/27 06:44:56;;;;;;;13.00;6.42;;;;;;;7.35;50.16;98584.45;1778006;81;21053;-79
2022/03/27 06:47:25;;;;;;;10.48;5.42;;;;;;;7.40;49.61;98579.16;1777908;81;21014;-79
2022/03/27 06:49:53;;;;;;;9.53;5.55;;;;;;;7.46;48.84;98595.36;1778100;81;20979;-79
2022/03/27 06:52:21;;;;;;;9.43;5.55;;;;;;;7.50;47.89;98587.86;1778053;81;21014;-79
2022/03/27 06:54:48;;;;;;;13.98;5.60;;;;;;;7.51;47.41;98595.77;1791216;79;21028;-79
2022/03/27 06:57:15;;;;;;;9.30;5.20;;;;;;;7.57;47.51;98594.86;1797626;79;20998;-79
2022/03/27 07:05:15;;;;;;;9.03;5.12;;;;;;;7.73;46.68;98611.88;1798013;79;21012;-79
2022/03/27 07:07:44;;;;;;;10.32;5.58;;;;;;;7.81;45.22;98602.15;1776420;80;20938;-79
2022/03/27 07:10:11;;;;;;;8.90;5.40;;;;;;;7.87;45.28;98610.00;1784394;80;21004;-80
2022/03/27 07:12:38;;;;;;;7.92;5.45;;;;;;;7.90;45.20;98603.82;1777794;81;21043;-80
2022/03/27 07:15:07;;;;;;;9.05;4.45;;;;;;;7.91;44.50;98610.84;1791215;80;21031;-79
2022/03/27 07:17:47;;;;;;;17.73;9.85;;;;;;;7.97;43.59;98595.41;1791419;80;21042;-80
2022/03/27 07:20:24;;;;;;;9.53;5.42;;;;;;;8.04;43.97;98605.00;1790035;80;21453;-80
2022/03/27 07:22:52;;;;;;;7.97;4.58;;;;;;;8.13;44.08;98604.92;1789773;80;21385;-78
2022/03/27 07:25:21;;;;;;;9.08;5.00;;;;;;;8.17;42.54;98611.92;1789759;80;21067;-79
2022/03/27 07:27:48;;;;;;;8.33;4.50;;;;;;;8.21;41.21;98618.50;1797081;79;20981;-79
2022/03/27 07:30:15;;;;;;;6.62;4.75;;;;;;;8.22;40.50;98615.83;1789672;80;21072;-79
2022/03/27 07:32:42;;;;;;;9.53;4.47;;;;;;;8.26;41.23;98615.38;1789758;80;20981;-78
2022/03/27 07:35:12;;;;;;;7.33;3.90;;;;;;;8.37;40.14;98609.95;1789660;79;21482;-79
2022/03/27 07:37:39;;;;;;;8.28;4.47;;;;;;;8.38;39.12;98615.69;1786999;80;21025;-79
2022/03/27 07:40:09;;;;;;;6.58;4.33;;;;;;;8.42;39.45;98618.27;1799831;80;21013;-79
2022/03/27 07:42:37;;;;;;;8.20;4.35;;;;;;;8.42;38.73;98618.70;1800103;80;21402;-79
2022/03/27 07:45:06;;;;;;;5.97;3.80;;;;;;;8.37;37.79;98641.22;1800207;80;21439;-79
2022/03/27 07:47:33;;;;;;;7.55;4.85;;;;;;;8.36;38.35;98613.06;1800176;80;21025;-79
2022/03/27 07:50:00;;;;;;;6.28;4.00;;;;;;;8.44;38.63;98616.94;1789212;80;20991;-79
2022/03/27 07:52:28;;;;;;;8.83;4.53;;;;;;;8.52;38.20;98612.89;1789824;80;20984;-79
2022/03/27 07:54:55;;;;;;;9.38;4.20;;;;;;;8.55;37.22;98604.50;1789831;80;20981;-79
2022/03/27 07:57:22;;;;;;;13.28;6.85;;;;;;;8.49;36.50;98603.66;1789329;79;21417;-79
2022/03/27 07:59:49;;;;;;;7.28;5.03;;;;;;;8.54;37.62;98601.88;1760151;81;21079;-81
2022/03/27 08:02:16;;;;;;;7.90;4.87;;;;;;;8.64;38.31;98586.81;1760202;81;21053;-80
2022/03/27 08:04:43;;;;;;;7.10;4.55;;;;;;;8.74;38.57;98596.37;1760001;81;21347;-80
2022/03/27 08:07:09;;;;;;;7.67;4.60;;;;;;;8.82;38.54;98588.34;1760233;81;21414;-78
2022/03/27 08:09:36;;;;;;;8.10;4.50;;;;;;;8.97;39.21;98598.70;1779460;80;21003;-80
2022/03/27 08:12:04;;;;;;;7.05;4.83;;;;;;;9.10;39.61;98615.27;1780914;80;20974;-80
2022/03/27 08:14:31;;;;;;;7.72;5.03;;;;;;;9.11;39.68;98597.19;1780821;80;21037;-80
2022/03/27 08:16:59;;;;;;;8.65;4.72;;;;;;;9.11;40.09;98602.47;1781648;80;21419;-80
2022/03/27 08:19:26;;;;;;;8.13;4.53;;;;;;;9.20;39.74;98603.25;1780747;80;21419;-79
2022/03/27 08:21:53;;;;;;;7.20;4.60;;;;;;;9.17;39.30;98597.55;1780870;80;20970;-79
2022/03/27 08:24:21;;;;;;;7.33;5.05;;;;;;;9.20;38.93;98607.22;1780527;81;20978;-80
2022/03/27 08:26:57;;;;;;;8.28;4.95;;;;;;;9.22;39.06;98594.86;1784360;80;20976;-79
2022/03/27 08:29:31;;;;;;;8.93;5.05;;;;;;;9.24;38.51;98608.49;1789652;80;21721;-80
2022/03/27 08:32:01;;;;;;;7.33;4.22;;;;;;;9.28;38.53;98597.41;1789660;80;20949;-80
2022/03/27 08:34:32;;;;;;;8.53;4.60;;;;;;;9.34;37.80;98595.14;1795986;79;21329;-80
2022/03/27 08:37:02;;;;;;;9.85;5.65;;;;;;;9.33;38.38;98596.01;1807422;79;21019;-80
2022/03/27 08:39:29;;;;;;;9.33;5.53;;;;;;;9.38;38.32;98583.58;1787366;79;21134;-79
2022/03/27 08:41:57;;;;;;;9.00;4.37;;;;;;;9.37;37.71;98617.12;1777523;81;21093;-80
2022/03/27 08:44:27;;;;;;;8.13;4.90;;;;;;;9.38;38.00;98584.47;1777610;81;21423;-80
2022/03/27 08:46:56;;;;;;;6.60;4.17;;;;;;;9.51;37.53;98585.62;1777594;81;21002;-79
2022/03/27 08:49:43;;;;;;;6.22;4.50;;;;;;;9.53;36.79;98585.56;1777544;81;20999;-79
2022/03/27 08:52:21;;;;;;;6.95;4.78;;;;;;;9.52;37.12;98584.72;1798735;79;21007;-78
2022/03/27 08:55:17;;;;;;;8.00;4.92;;;;;;;9.61;37.00;98587.66;1807700;79;21063;-79
2022/03/27 08:57:57;;;;;;;8.23;4.05;;;;;;;9.62;36.61;98582.77;1807903;79;21131;-79
2022/03/27 09:00:33;;;;;;;6.30;4.75;;;;;;;9.68;36.54;98594.58;1807586;79;21055;-79
2022/03/27 09:03:03;;;;;;;8.40;4.62;;;;;;;9.72;35.96;98580.87;1807443;79;20992;-79
2022/03/27 09:05:32;;;;;;;12.00;4.50;;;;;;;9.81;36.20;98577.19;1807970;79;21417;-79
2022/03/27 09:08:03;;;;;;;5.30;3.58;;;;;;;9.83;34.13;98583.31;1807802;79;21454;-79
2022/03/27 09:10:30;;;;;;;7.42;4.20;;;;;;;9.86;33.70;98596.07;1807983;79;21026;-79
2022/03/27 09:12:57;;;;;;;9.58;4.90;;;;;;;9.96;33.82;98591.95;1807935;79;21023;-79
2022/03/27 09:15:23;;;;;;;8.75;4.95;;;;;;;9.97;33.88;98592.36;1805588;79;21034;-79
2022/03/27 09:18:11;;;;;;;10.70;5.25;;;;;;;10.04;34.29;98581.63;1808057;79;20988;-79
2022/03/27 09:20:47;;;;;;;6.37;4.08;;;;;;;10.18;34.54;98595.08;1807701;79;21008;-81
2022/03/27 09:23:30;;;;;;;7.83;3.77;;;;;;;10.29;33.96;98589.56;1807898;79;21115;-81
2022/03/27 09:26:02;;;;;;;7.17;3.77;;;;;;;10.47;32.75;98590.16;1807814;79;21007;-80
2022/03/27 09:28:39;;;;;;;7.78;4.28;;;;;;;10.59;33.05;98597.00;1803116;78;20985;-79
2022/03/27 09:31:26;;;;;;;5.65;3.75;;;;;;;10.75;32.92;98593.59;1807382;79;20984;-79
2022/03/27 09:34:00;;;;;;;6.92;4.08;;;;;;;10.90;31.85;98597.24;1813085;78;21016;-79
2022/03/27 09:36:33;;;;;;;5.35;3.52;;;;;;;11.03;31.62;98608.45;1809050;79;21451;-79
2022/03/27 09:39:19;;;;;;;6.95;3.92;;;;;;;11.08;31.19;98593.31;1805601;79;21492;-80
2022/03/27 09:41:54;;;;;;;7.87;4.45;;;;;;;11.11;29.47;98606.08;1777176;81;21034;-80
2022/03/27 09:44:25;;;;;;;8.90;4.42;;;;;;;11.17;29.28;98594.88;1777516;81;20998;-78
2022/03/27 09:47:04;;;;;;;7.00;3.92;;;;;;;11.18;30.52;98605.05;1776512;81;20990;-78
2022/03/27 09:49:38;;;;;;;6.60;3.70;;;;;;;11.10;29.48;98594.61;1777390;81;20994;-79
2022/03/27 09:52:19;;;;;;;5.37;3.58;;;;;;;11.09;28.72;98583.59;1792208;79;21023;-78
2022/03/27 09:55:03;;;;;;;7.03;4.08;;;;;;;11.17;29.38;98582.94;1807895;79;21015;-79
2022/03/27 09:57:34;;;;;;;7.12;4.10;;;;;;;11.28;29.52;98588.01;1807926;79;20996;-79
2022/03/27 10:00:20;;;;;;;7.87;3.83;;;;;;;11.40;29.91;98585.53;1808081;79;21047;-80
2022/03/27 10:02:51;;;;;;;13.98;7.25;;;;;;;11.57;29.49;98594.86;1807991;79;21413;-81
2022/03/27 10:05:20;;;;;;;5.87;4.58;;;;;;;11.71;29.20;98594.07;1806938;79;21028;-80
2022/03/27 10:07:54;;;;;;;8.55;4.47;;;;;;;11.87;29.17;98585.72;1808035;79;21007;-81
2022/03/27 10:10:24;;;;;;;10.08;3.67;;;;;;;12.09;27.67;98598.50;1808112;79;21035;-80
2022/03/27 10:12:53;;;;;;;5.78;3.70;;;;;;;12.31;28.73;98588.61;1807960;79;20964;-80
2022/03/27 10:15:24;;;;;;;7.40;4.03;;;;;;;12.50;26.26;98591.66;1807848;79;21449;-80
2022/03/27 10:17:58;;;;;;;7.40;3.98;;;;;;;12.66;27.03;98586.31;1809549;79;20988;-80
2022/03/27 10:20:35;;;;;;;5.37;3.77;;;;;;;12.91;27.70;98596.23;1809830;79;21033;-81
2022/03/27 10:23:11;;;;;;;9.08;4.20;;;;;;;13.06;26.55;98595.37;1809727;79;20995;-79
2022/03/27 10:25:50;;;;;;;6.75;3.75;;;;;;;13.06;25.30;98602.91;1771599;81;21007;-79
2022/03/27 10:28:20;;;;;;;5.53;3.75;;;;;;;13.06;26.40;98599.36;1779893;79;21057;-79
2022/03/27 10:30:52;;;;;;;9.13;3.90;;;;;;;13.13;25.08;98599.60;1807633;79;20978;-79
2022/03/27 10:33:22;;;;;;;5.50;3.67;;;;;;;13.14;24.54;98596.02;1807445;79;21056;-79
2022/03/27 10:36:10;;;;;;;4.72;3.20;;;;;;;13.16;23.66;98607.47;1794605;79;21072;-79
2022/03/27 10:39:02;;;;;;;5.42;3.92;;;;;;;13.17;23.20;98590.58;1789534;80;21020;-79
2022/03/27 10:41:55;;;;;;;6.85;4.35;;;;;;;13.26;24.17;98596.10;1789356;80;21500;-79
2022/03/27 10:44:54;;;;;;;5.13;3.63;;;;;;;13.39;23.82;98589.05;1781394;80;21167;-80
2022/03/27 10:47:24;;;;;;;8.15;4.20;;;;;;;13.91;24.54;98582.98;1791349;80;21452;-79
2022/03/27 10:50:08;;;;;;;9.90;6.65;;;;;;;15.30;22.58;98575.75;1791353;80;21015;-79
2022/03/27 10:52:46;;;;;;;4.62;3.40;;;;;;;16.14;20.03;98597.33;1789233;80;21468;-79
2022/03/27 10:55:16;;;;;;;5.83;4.12;;;;;;;17.17;18.91;98575.41;1781091;80;21030;-79
2022/03/27 10:57:46;;;;;;;6.25;4.30;;;;;;;17.88;18.97;98562.58;1780897;80;21150;-79
2022/03/27 11:00:15;;;;;;;5.87;3.90;;;;;;;18.46;18.92;98577.99;1780884;80;21014;-79
2022/03/27 11:02:49;;;;;;;7.17;4.10;;;;;;;18.81;17.08;98556.05;1788876;80;20989;-80
2022/03/27 11:05:41;;;;;;;5.30;4.03;;;;;;;19.86;18.16;98540.34;1789768;80;21024;-80
2022/03/27 11:08:23;;;;;;;5.12;3.83;;;;;;;19.76;17.83;98554.80;1789694;80;21000;-80
2022/03/27 11:10:55;;;;;;;5.70;4.15;;;;;;;21.00;17.95;98552.37;1788750;80;21509;-80
2022/03/27 11:13:33;;;;;;;5.90;3.40;;;;;;;22.00;18.04;98567.89;1789711;80;20957;-80
2022/03/27 11:16:10;;;;;;;5.22;3.92;;;;;;;22.73;14.76;98553.95;1785531;80;21050;-80
2022/03/27 11:18:47;;;;;;;6.65;4.17;;;;;;;23.44;15.47;98546.65;1778514;79;20999;-80
2022/03/27 11:21:30;;;;;;;7.67;5.85;;;;;;;22.83;13.01;98570.36;1799909;80;21092;-80
2022/03/27 11:24:09;;;;;;;4.40;3.67;;;;;;;21.39;13.46;98562.89;1786227;79;20967;-80
2022/03/27 11:26:36;;;;;;;7.33;4.10;;;;;;;21.81;14.29;98553.44;1789707;80;21485;-79
2022/03/27 11:29:21;;;;;;;5.03;3.75;;;;;;;22.23;12.78;98560.53;1804747;79;20971;-80
2022/03/27 11:32:02;;;;;;;6.50;4.03;;;;;;;22.59;13.22;98547.31;1809674;79;21007;-80
2022/03/27 11:34:28;;;;;;;3.58;2.80;;;;;;;23.31;12.87;98541.25;1786519;79;21082;-80
2022/03/27 11:37:23;;;;;;;7.12;2.98;;;;;;;24.11;13.47;98526.79;1807459;79;21698;-79
2022/03/27 11:39:46;;;;;;;6.50;3.27;;;;;;;24.38;12.72;98521.54;1807036;79;21038;-79
2022/03/27 11:42:32;;;;;;;3.58;3.22;;;;;;;24.91;12.76;98533.69;1807550;79;21042;-80
2022/03/27 11:45:18;;;;;;;3.77;2.95;;;;;;;25.46;12.34;98546.94;1805222;79;21073;-80
2022/03/27 11:47:55;;;;;;;3.45;2.62;;;;;;;24.50;10.83;98517.52;1802687;79;20977;-78
2022/03/27 11:50:29;;;;;;;5.33;3.02;;;;;;;25.08;11.26;98534.67;1775737;79;21441;-78
2022/03/27 11:52:58;;;;;;;5.58;3.00;;;;;;;25.29;12.11;98526.62;1775766;81;20985;-78